San Antonio, Texas
Traffic Map
Current Weather Conditions
San Antonio, Texas
Few Clouds
Few Clouds
87°
Feels Like: 93°
Wind Chill: 87° Ceiling: Unl
Heat Index: 93° Visibility: 10mi
Dew Point: 71° Wind: 9mph
Humidity: 58% Direction: 100° (E)
Pressure: 30in Gusts: 0mph
Raw Report DataKSKF 250058Z COR 10008KT 10SM FEW050 31/22 A3000 RMK AO2A SLP151 T03070217 $ COR 0059
Traffic Incident Summary
Active as of:
Severity:
Category:
InformationThere was an issue retrieving the traffic information for this location. Please try a different location or try again shortly.
Advertisements
Track Severe Weather on mobile